createdAt,value
2022-08-17T00:03:10.961Z,78.55
2022-08-17T00:08:51.253Z,78.68
2022-08-17T00:14:42.870Z,78.96
2022-08-17T00:20:34.718Z,79.12
2022-08-17T00:26:14.216Z,79.46
2022-08-17T00:31:49.142Z,79.93
2022-08-17T00:37:16.489Z,80.07
2022-08-17T00:42:46.403Z,79.82
2022-08-17T00:48:30.263Z,79.44
2022-08-17T00:54:13.589Z,79.07
2022-08-17T01:00:02.241Z,79.00
2022-08-17T01:06:11.577Z,79.10
2022-08-17T01:11:59.797Z,79.15
2022-08-17T01:17:30.056Z,79.07
2022-08-17T01:23:27.611Z,79.18
2022-08-17T01:29:25.675Z,79.79
2022-08-17T01:35:05.143Z,80.05
2022-08-17T01:41:14.017Z,80.06
2022-08-17T01:46:39.797Z,80.10
2022-08-17T01:52:17.225Z,80.12
2022-08-17T01:57:40.108Z,80.18
2022-08-17T02:03:13.630Z,80.07
2022-08-17T02:09:02.992Z,80.21
2022-08-17T02:14:32.867Z,80.10
2022-08-17T02:20:18.404Z,79.82
2022-08-17T02:26:03.889Z,79.69
2022-08-17T02:31:38.006Z,79.97
2022-08-17T02:37:26.085Z,80.43
2022-08-17T02:43:01.301Z,80.71
2022-08-17T02:48:52.291Z,80.96
2022-08-17T02:54:41.416Z,80.64
2022-08-17T03:00:39.024Z,79.96
2022-08-17T03:06:38.137Z,79.81
2022-08-17T03:12:18.041Z,79.86
2022-08-17T03:17:44.091Z,79.69
2022-08-17T03:23:16.264Z,79.63
2022-08-17T03:29:02.994Z,79.44
2022-08-17T03:34:32.834Z,79.50
2022-08-17T03:40:34.430Z,79.53
2022-08-17T03:46:35.125Z,79.62
2022-08-17T03:52:17.405Z,80.39
2022-08-17T03:57:50.510Z,81.16
2022-08-17T04:03:27.976Z,81.14
2022-08-17T04:09:11.699Z,80.71
2022-08-17T04:14:53.169Z,80.41
2022-08-17T04:20:32.287Z,80.52
2022-08-17T04:26:53.175Z,81.10
2022-08-17T04:33:04.252Z,81.04
2022-08-17T04:39:26.534Z,80.64
2022-08-17T04:45:11.684Z,80.22
2022-08-17T04:50:50.215Z,79.79
2022-08-17T04:56:51.662Z,79.81
2022-08-17T05:02:37.185Z,79.82
2022-08-17T05:08:40.749Z,80.00
2022-08-17T05:14:13.991Z,80.19
2022-08-17T05:19:41.709Z,80.36
2022-08-17T05:25:34.471Z,80.57
2022-08-17T05:31:19.004Z,80.57
2022-08-17T05:36:51.658Z,80.58
2022-08-17T05:42:24.925Z,80.50
2022-08-17T05:48:10.767Z,80.46
2022-08-17T05:54:16.118Z,80.21
2022-08-17T06:00:18.321Z,79.89
2022-08-17T06:06:17.350Z,79.48
2022-08-17T06:12:34.528Z,78.80
2022-08-17T06:18:04.535Z,78.42
2022-08-17T06:24:15.935Z,78.12
2022-08-17T06:30:21.525Z,77.65
2022-08-17T06:36:26.570Z,77.49
2022-08-17T06:43:02.928Z,77.25
2022-08-17T06:49:49.551Z,76.83
2022-08-17T06:55:37.879Z,76.47
2022-08-17T07:01:25.299Z,75.10
2022-08-17T07:06:59.928Z,74.18
2022-08-17T07:12:37.814Z,73.96
2022-08-17T07:18:07.571Z,73.00
2022-08-17T07:24:30.588Z,72.68
2022-08-17T07:30:26.663Z,72.16
2022-08-17T07:35:50.365Z,71.69
2022-08-17T07:41:12.631Z,71.11
2022-08-17T07:47:11.098Z,70.28
2022-08-17T07:52:51.743Z,69.84
2022-08-17T07:58:26.413Z,69.24
2022-08-17T08:03:55.111Z,68.71
2022-08-17T08:09:48.587Z,68.07
2022-08-17T08:15:13.893Z,67.14
2022-08-17T08:21:33.238Z,67.18
2022-08-17T08:27:31.016Z,66.62
2022-08-17T08:33:39.709Z,66.17
2022-08-17T08:39:16.254Z,65.70
2022-08-17T08:45:42.539Z,65.64
2022-08-17T08:51:20.722Z,64.46
2022-08-17T08:57:29.424Z,64.00
2022-08-17T09:03:51.571Z,62.95
2022-08-17T09:10:15.075Z,61.94
2022-08-17T09:16:02.092Z,60.79
2022-08-17T09:21:54.756Z,59.11
2022-08-17T09:27:33.416Z,58.63
2022-08-17T09:33:09.063Z,58.90
2022-08-17T09:39:03.065Z,59.21
2022-08-17T09:45:32.405Z,58.51
2022-08-17T09:51:06.596Z,57.51
2022-08-17T09:57:30.380Z,55.96
2022-08-17T10:04:05.108Z,54.72
2022-08-17T10:10:29.801Z,55.32
2022-08-17T10:17:44.301Z,55.08
2022-08-17T10:24:02.009Z,53.58
2022-08-17T10:31:05.256Z,52.85
2022-08-17T10:37:42.484Z,52.27
2022-08-17T10:44:59.510Z,52.32
2022-08-17T10:51:53.296Z,51.50
2022-08-17T10:57:50.322Z,51.63
2022-08-17T11:04:21.287Z,50.78
2022-08-17T11:11:13.656Z,50.72
2022-08-17T11:17:55.649Z,51.74
2022-08-17T11:24:56.777Z,50.81
2022-08-17T11:31:03.200Z,50.46
2022-08-17T11:37:50.667Z,49.81
2022-08-17T11:44:11.077Z,49.63
2022-08-17T11:50:55.728Z,49.09
2022-08-17T11:56:52.917Z,48.67
2022-08-17T12:03:16.130Z,49.10
2022-08-17T12:09:20.589Z,49.19
2022-08-17T12:15:17.829Z,47.87
2022-08-17T12:21:03.537Z,47.24
2022-08-17T12:26:33.571Z,46.93
2022-08-17T12:32:35.306Z,46.86
2022-08-17T12:38:31.819Z,46.53
2022-08-17T12:44:30.606Z,46.90
2022-08-17T12:50:04.243Z,46.15
2022-08-17T12:55:37.544Z,46.06
2022-08-17T13:01:16.256Z,45.75
2022-08-17T13:07:03.799Z,45.10
2022-08-17T13:12:44.646Z,44.34
2022-08-17T13:18:35.366Z,44.51
2022-08-17T13:24:04.305Z,43.78
2022-08-17T13:29:45.631Z,42.97
2022-08-17T13:35:51.590Z,43.37
2022-08-17T13:41:40.436Z,43.62
2022-08-17T13:47:18.403Z,43.68
2022-08-17T13:52:43.498Z,43.21
2022-08-17T13:58:07.400Z,43.47
2022-08-17T14:03:29.903Z,43.13
2022-08-17T14:08:56.178Z,43.90
2022-08-17T14:14:19.179Z,43.53
2022-08-17T14:19:41.512Z,42.44
2022-08-17T14:25:08.562Z,42.21
2022-08-17T14:30:35.940Z,42.97
2022-08-17T14:36:07.679Z,43.96
2022-08-17T14:41:30.505Z,43.74
2022-08-17T14:47:15.983Z,43.31
2022-08-17T14:52:42.797Z,44.49
2022-08-17T14:58:09.185Z,44.44
2022-08-17T15:03:34.751Z,44.48
2022-08-17T15:08:56.887Z,43.74
2022-08-17T15:14:19.052Z,43.29
2022-08-17T15:19:41.369Z,43.54
2022-08-17T15:25:10.212Z,43.71
2022-08-17T15:30:32.378Z,43.24
2022-08-17T15:35:54.666Z,43.46
2022-08-17T15:41:33.445Z,43.40
2022-08-17T15:47:06.073Z,43.76
2022-08-17T15:52:40.584Z,43.65
2022-08-17T15:58:03.821Z,43.54
2022-08-17T16:04:01.580Z,44.25
2022-08-17T16:09:21.701Z,44.28
2022-08-17T16:15:17.748Z,44.65
2022-08-17T16:21:23.642Z,44.63
2022-08-17T16:26:46.163Z,45.21
2022-08-17T16:32:21.008Z,45.22
2022-08-17T16:37:58.961Z,45.83
2022-08-17T16:43:21.012Z,46.52
2022-08-17T16:48:46.698Z,47.28
2022-08-17T16:54:09.128Z,47.58
2022-08-17T16:59:40.925Z,47.88
2022-08-17T17:05:42.361Z,47.82
2022-08-17T17:11:54.472Z,48.34
2022-08-17T17:17:34.759Z,49.01
2022-08-17T17:23:41.076Z,50.03
2022-08-17T17:29:48.636Z,50.47
2022-08-17T17:36:08.609Z,51.28
2022-08-17T17:42:01.305Z,51.33
2022-08-17T17:47:23.458Z,52.13
2022-08-17T17:53:07.629Z,52.97
2022-08-17T17:59:12.945Z,53.94
2022-08-17T18:04:58.008Z,54.29
2022-08-17T18:11:04.848Z,55.43
2022-08-17T18:16:29.832Z,56.29
2022-08-17T18:22:14.416Z,56.87
2022-08-17T18:27:51.959Z,57.76
2022-08-17T18:33:26.962Z,58.04
2022-08-17T18:39:27.429Z,58.31
2022-08-17T18:44:56.653Z,58.56
2022-08-17T18:50:47.689Z,58.75
2022-08-17T18:56:30.718Z,58.83
2022-08-17T19:02:45.113Z,59.06
2022-08-17T19:08:24.853Z,59.87
2022-08-17T19:14:10.547Z,60.15
2022-08-17T19:20:13.865Z,60.26
2022-08-17T19:25:50.860Z,60.90
2022-08-17T19:31:27.265Z,61.27
2022-08-17T19:37:02.809Z,61.62
2022-08-17T19:42:33.128Z,62.38
2022-08-17T19:48:40.572Z,62.94
2022-08-17T19:54:38.274Z,63.51
2022-08-17T20:00:15.499Z,64.46
2022-08-17T20:06:20.524Z,65.04
2022-08-17T20:12:02.184Z,65.53
2022-08-17T20:17:57.036Z,65.85
2022-08-17T20:23:45.232Z,66.21
2022-08-17T20:29:36.930Z,67.14
2022-08-17T20:35:19.387Z,67.47
2022-08-17T20:41:04.026Z,68.21
2022-08-17T20:46:47.201Z,68.56
2022-08-17T20:52:51.517Z,69.04
2022-08-17T20:58:17.865Z,69.47
2022-08-17T21:04:49.130Z,69.70
2022-08-17T21:11:17.359Z,69.93
2022-08-17T21:18:21.669Z,70.40
2022-08-17T21:25:01.263Z,70.76
2022-08-17T21:32:17.116Z,71.11
2022-08-17T21:39:02.048Z,71.63
2022-08-17T21:46:13.720Z,72.45
2022-08-17T21:53:16.735Z,72.89
2022-08-17T22:00:19.982Z,73.43
2022-08-17T22:07:35.217Z,73.76
2022-08-17T22:14:52.129Z,74.13
2022-08-17T22:21:56.686Z,74.46
2022-08-17T22:29:21.243Z,74.58
2022-08-17T22:36:22.031Z,74.81
2022-08-17T22:43:26.161Z,74.82
2022-08-17T22:50:25.437Z,75.00
2022-08-17T22:57:32.948Z,75.00
2022-08-17T23:04:36.894Z,75.31
2022-08-17T23:11:48.999Z,75.50
2022-08-17T23:18:37.965Z,75.61
2022-08-17T23:25:40.935Z,75.86
2022-08-17T23:32:26.674Z,76.86
2022-08-17T23:39:24.594Z,77.28
2022-08-17T23:46:30.838Z,77.49
2022-08-17T23:53:34.272Z,77.51
